createdAt,value
2023-05-15T00:00:28.173Z,7.40
2023-05-15T00:02:57.403Z,4.85
2023-05-15T00:05:25.170Z,7.25
2023-05-15T00:07:52.892Z,5.65
2023-05-15T00:10:20.303Z,5.32
2023-05-15T00:12:47.559Z,6.32
2023-05-15T00:15:14.851Z,6.57
2023-05-15T00:17:42.228Z,5.63
2023-05-15T00:20:10.177Z,6.43
2023-05-15T00:22:37.473Z,7.28
2023-05-15T00:25:05.158Z,6.43
2023-05-15T00:27:32.446Z,6.90
2023-05-15T00:29:59.656Z,6.22
2023-05-15T00:32:26.952Z,6.40
2023-05-15T00:34:54.308Z,5.70
2023-05-15T00:37:21.805Z,6.25
2023-05-15T00:39:49.267Z,7.60
2023-05-15T00:42:17.567Z,5.75
2023-05-15T00:44:45.791Z,7.18
2023-05-15T00:47:14.284Z,6.15
2023-05-15T00:49:43.039Z,4.75
2023-05-15T00:52:11.197Z,6.15
2023-05-15T00:54:38.554Z,7.97
2023-05-15T00:57:08.744Z,6.75
2023-05-15T00:59:39.296Z,5.22
2023-05-15T01:02:06.730Z,6.30
2023-05-15T01:04:34.117Z,7.85
2023-05-15T01:07:02.017Z,7.00
2023-05-15T01:09:31.649Z,7.10
2023-05-15T01:12:01.366Z,6.50
2023-05-15T01:14:29.298Z,6.72
2023-05-15T01:16:57.105Z,6.85
2023-05-15T01:19:24.560Z,8.13
2023-05-15T01:22:20.177Z,7.88
2023-05-15T01:25:06.270Z,6.32
2023-05-15T01:27:51.060Z,7.35
2023-05-15T01:30:29.007Z,6.53
2023-05-15T01:33:07.284Z,7.57
2023-05-15T01:35:44.110Z,7.93
2023-05-15T01:38:28.180Z,7.90
2023-05-15T01:41:03.254Z,6.70
2023-05-15T01:43:33.145Z,6.70
2023-05-15T01:46:02.276Z,8.95
2023-05-15T01:48:33.543Z,8.27
2023-05-15T01:51:03.980Z,7.35
2023-05-15T01:53:33.954Z,6.47
2023-05-15T01:56:02.946Z,6.07
2023-05-15T01:58:32.477Z,6.43
2023-05-15T02:01:01.648Z,6.30
2023-05-15T02:03:34.685Z,6.40
2023-05-15T02:06:04.016Z,7.47
2023-05-15T02:08:33.297Z,9.45
2023-05-15T02:11:03.034Z,7.22
2023-05-15T02:13:32.354Z,7.70
2023-05-15T02:16:00.099Z,6.55
2023-05-15T02:18:29.493Z,6.70
2023-05-15T02:21:01.383Z,9.40
2023-05-15T02:23:29.182Z,6.57
2023-05-15T02:26:18.592Z,7.55
2023-05-15T02:28:58.701Z,7.15
2023-05-15T02:31:38.603Z,7.88
2023-05-15T02:34:25.928Z,8.75
2023-05-15T02:36:54.945Z,7.88
2023-05-15T02:39:25.239Z,8.18
2023-05-15T02:41:53.854Z,9.10
2023-05-15T02:44:21.984Z,10.15
2023-05-15T02:46:50.896Z,9.50
2023-05-15T02:49:18.976Z,10.88
2023-05-15T02:51:47.521Z,8.80
2023-05-15T02:54:15.747Z,9.07
2023-05-15T02:56:42.903Z,8.48
2023-05-15T02:59:10.247Z,7.68
2023-05-15T03:01:37.659Z,7.90
2023-05-15T03:04:05.081Z,9.02
2023-05-15T03:06:32.218Z,8.60
2023-05-15T03:08:59.361Z,8.73
2023-05-15T03:11:26.507Z,8.82
2023-05-15T03:13:53.754Z,10.20
2023-05-15T03:16:21.039Z,9.20
2023-05-15T03:18:48.318Z,9.30
2023-05-15T03:21:15.409Z,13.18
2023-05-15T03:23:42.643Z,9.05
2023-05-15T03:26:09.704Z,13.63
2023-05-15T03:28:37.622Z,10.60
2023-05-15T03:31:05.845Z,9.65
2023-05-15T03:33:32.974Z,9.73
2023-05-15T03:36:00.415Z,9.70
2023-05-15T03:38:27.506Z,10.45
2023-05-15T03:40:54.718Z,11.52
2023-05-15T03:43:21.872Z,10.00
2023-05-15T03:45:49.793Z,10.02
2023-05-15T03:48:16.881Z,11.50
2023-05-15T03:50:45.522Z,10.60
2023-05-15T03:53:12.850Z,11.85
2023-05-15T03:55:40.094Z,11.15
2023-05-15T03:58:07.553Z,12.75
2023-05-15T04:00:34.887Z,9.60
2023-05-15T04:03:02.469Z,9.60
2023-05-15T04:05:29.790Z,9.88
2023-05-15T04:07:57.012Z,12.32
2023-05-15T04:10:24.371Z,8.05
2023-05-15T04:12:52.114Z,8.50
2023-05-15T04:15:22.271Z,8.30
2023-05-15T04:17:52.658Z,8.40
2023-05-15T04:20:22.539Z,8.57
2023-05-15T04:22:50.186Z,9.90
2023-05-15T04:25:18.198Z,8.95
2023-05-15T04:27:46.063Z,9.40
2023-05-15T04:30:13.836Z,11.18
2023-05-15T04:32:41.615Z,9.65
2023-05-15T04:35:11.765Z,13.02
2023-05-15T04:37:39.740Z,11.73
2023-05-15T04:40:08.242Z,15.13
2023-05-15T04:42:38.563Z,14.60
2023-05-15T04:45:07.612Z,20.90
2023-05-15T04:47:35.880Z,13.13
2023-05-15T04:50:03.230Z,9.15
2023-05-15T04:52:30.470Z,8.10
2023-05-15T04:54:57.615Z,7.55
2023-05-15T04:57:25.848Z,7.28
2023-05-15T04:59:53.306Z,7.05
2023-05-15T05:02:22.907Z,6.63
2023-05-15T05:04:50.753Z,9.45
2023-05-15T05:07:17.980Z,7.25
2023-05-15T05:09:45.510Z,7.30
2023-05-15T05:12:12.824Z,7.55
2023-05-15T05:14:42.207Z,8.43
2023-05-15T05:17:10.463Z,8.48
2023-05-15T05:19:37.650Z,6.40
2023-05-15T05:22:06.039Z,7.43
2023-05-15T05:24:33.599Z,8.00
2023-05-15T05:27:01.189Z,6.15
2023-05-15T05:29:29.654Z,7.22
2023-05-15T05:31:57.024Z,6.78
2023-05-15T05:34:24.371Z,7.22
2023-05-15T05:36:51.604Z,7.00
2023-05-15T05:39:18.944Z,5.63
2023-05-15T05:41:46.043Z,8.65
2023-05-15T05:44:13.182Z,4.82
2023-05-15T05:46:40.360Z,4.00
2023-05-15T05:49:07.453Z,3.83
2023-05-15T05:51:37.144Z,5.55
2023-05-15T05:54:04.317Z,3.90
2023-05-15T05:56:31.484Z,5.90
2023-05-15T05:58:59.734Z,4.68
2023-05-15T06:01:27.795Z,3.95
2023-05-15T06:03:56.083Z,4.85
2023-05-15T06:06:23.607Z,4.43
2023-05-15T06:08:50.871Z,3.65
2023-05-15T06:11:18.114Z,5.15
2023-05-15T06:13:45.245Z,3.75
2023-05-15T06:16:12.376Z,4.47
2023-05-15T06:18:39.470Z,3.90
2023-05-15T06:21:06.827Z,4.10
2023-05-15T06:23:33.947Z,5.32
2023-05-15T06:26:01.832Z,4.20
2023-05-15T06:28:29.009Z,4.22
2023-05-15T06:30:56.196Z,6.60
2023-05-15T06:33:23.416Z,5.22
2023-05-15T06:35:50.858Z,5.72
2023-05-15T06:38:18.029Z,4.57
2023-05-15T06:40:45.357Z,3.67
2023-05-15T06:43:12.440Z,4.65
2023-05-15T06:45:39.897Z,5.30
2023-05-15T06:48:07.628Z,5.85
2023-05-15T06:50:34.990Z,5.22
2023-05-15T06:53:02.591Z,4.72
2023-05-15T06:55:29.706Z,5.25
2023-05-15T06:57:56.851Z,7.53
2023-05-15T07:00:23.976Z,4.30
2023-05-15T07:02:51.215Z,4.32
2023-05-15T07:05:18.429Z,3.05
2023-05-15T07:07:46.052Z,6.05
2023-05-15T07:10:13.268Z,3.90
2023-05-15T07:12:40.393Z,3.30
2023-05-15T07:15:08.014Z,3.50
2023-05-15T07:17:35.410Z,3.47
2023-05-15T07:20:02.832Z,3.40
2023-05-15T07:22:30.515Z,3.63
2023-05-15T07:24:58.598Z,4.45
2023-05-15T07:27:26.713Z,4.63
2023-05-15T07:29:54.314Z,3.65
2023-05-15T07:32:21.559Z,3.33
2023-05-15T07:34:48.714Z,4.13
2023-05-15T07:37:17.010Z,2.67
2023-05-15T07:39:44.443Z,3.33
2023-05-15T07:42:11.803Z,3.25
2023-05-15T07:44:38.839Z,3.33
2023-05-15T07:47:06.237Z,5.30
2023-05-15T07:49:33.376Z,1.90
2023-05-15T07:52:01.706Z,2.00
2023-05-15T07:54:30.208Z,1.27
2023-05-15T07:56:57.633Z,1.77
2023-05-15T07:59:25.111Z,2.90
2023-05-15T08:01:52.238Z,1.63
2023-05-15T08:04:19.537Z,2.53
2023-05-15T08:06:46.707Z,1.25
2023-05-15T08:09:13.865Z,1.35
2023-05-15T08:11:41.335Z,1.35
2023-05-15T08:14:09.303Z,1.08
2023-05-15T08:16:37.572Z,3.55
2023-05-15T08:19:06.986Z,1.60
2023-05-15T08:21:34.382Z,2.13
2023-05-15T08:24:01.478Z,1.88
2023-05-15T08:26:28.709Z,2.25
2023-05-15T08:28:55.757Z,2.92
2023-05-15T08:31:23.213Z,2.47
2023-05-15T08:33:50.347Z,1.48
2023-05-15T08:36:19.972Z,3.17
2023-05-15T08:38:47.229Z,1.40
2023-05-15T08:41:39.335Z,1.27
2023-05-15T08:44:10.137Z,3.60
2023-05-15T08:46:37.439Z,1.60
2023-05-15T08:49:15.911Z,2.55
2023-05-15T08:51:43.470Z,2.10
2023-05-15T08:54:11.729Z,2.17
2023-05-15T08:56:39.041Z,2.42
2023-05-15T08:59:06.429Z,3.75
2023-05-15T09:01:34.514Z,1.63
2023-05-15T09:04:02.257Z,1.20
2023-05-15T09:06:30.217Z,2.55
2023-05-15T09:08:58.899Z,2.25
2023-05-15T09:11:28.889Z,2.72
2023-05-15T09:14:00.046Z,1.63
2023-05-15T09:16:28.436Z,4.68
2023-05-15T09:18:55.843Z,3.67
2023-05-15T09:21:26.337Z,2.72
2023-05-15T09:23:55.411Z,2.47
2023-05-15T09:26:22.671Z,1.35
2023-05-15T09:28:49.950Z,2.03
2023-05-15T09:31:20.450Z,1.77
2023-05-15T09:33:47.725Z,2.72
2023-05-15T09:36:23.109Z,1.90
2023-05-15T09:38:57.691Z,2.10
2023-05-15T09:41:26.488Z,2.03
2023-05-15T09:43:56.491Z,2.15
2023-05-15T09:46:24.468Z,1.33
2023-05-15T09:48:58.092Z,1.35
2023-05-15T09:51:27.805Z,4.30
2023-05-15T09:53:55.610Z,3.13
2023-05-15T09:56:23.168Z,3.17
2023-05-15T09:58:59.140Z,3.75
2023-05-15T10:01:28.019Z,2.50
2023-05-15T10:04:03.432Z,2.90
2023-05-15T10:06:42.107Z,2.17
2023-05-15T10:09:11.687Z,2.65
2023-05-15T10:11:41.904Z,3.63
2023-05-15T10:14:11.264Z,2.50
2023-05-15T10:16:40.231Z,2.83
2023-05-15T10:19:10.396Z,1.58
2023-05-15T10:21:40.019Z,3.05
2023-05-15T10:24:08.499Z,0.77
2023-05-15T10:26:42.243Z,2.58
2023-05-15T10:29:13.371Z,0.80
2023-05-15T10:31:41.556Z,1.05
2023-05-15T10:34:10.641Z,0.68
2023-05-15T10:36:38.983Z,0.70
2023-05-15T10:39:08.277Z,0.50
2023-05-15T10:41:38.681Z,1.08
2023-05-15T10:44:06.177Z,0.70
2023-05-15T10:46:36.242Z,0.75
2023-05-15T10:49:04.548Z,1.00
2023-05-15T10:51:36.216Z,0.75
2023-05-15T10:54:03.954Z,1.05
2023-05-15T10:56:32.208Z,0.68
2023-05-15T10:59:08.183Z,2.83
2023-05-15T11:01:37.719Z,0.57
2023-05-15T11:04:26.456Z,0.47
2023-05-15T11:07:12.881Z,1.38
2023-05-15T11:09:40.531Z,0.35
2023-05-15T11:12:10.145Z,0.52
2023-05-15T11:14:39.367Z,1.60
2023-05-15T11:17:12.011Z,0.40
2023-05-15T11:19:59.263Z,1.02
2023-05-15T11:22:28.916Z,0.57
2023-05-15T11:25:12.821Z,0.30
2023-05-15T11:27:42.914Z,2.42
2023-05-15T11:30:11.562Z,1.45
2023-05-15T11:33:02.158Z,0.75
2023-05-15T11:35:33.169Z,0.30
2023-05-15T11:38:03.143Z,0.45
2023-05-15T11:40:32.751Z,0.85
2023-05-15T11:43:07.111Z,1.08
2023-05-15T11:48:04.895Z,0.30
2023-05-15T11:50:33.715Z,0.63
2023-05-15T11:53:06.452Z,0.80
2023-05-15T11:55:35.754Z,1.67
2023-05-15T11:58:04.408Z,1.67
2023-05-15T12:00:31.853Z,1.55
2023-05-15T12:02:59.221Z,0.50
2023-05-15T12:05:26.349Z,1.15
2023-05-15T12:07:53.468Z,1.83
2023-05-15T12:10:20.698Z,1.08
2023-05-15T12:12:48.900Z,0.50
2023-05-15T12:15:17.555Z,2.10
2023-05-15T12:17:46.353Z,0.40
2023-05-15T12:20:17.996Z,2.05
2023-05-15T12:22:45.586Z,0.50
2023-05-15T12:25:15.486Z,0.70
2023-05-15T12:27:43.156Z,1.80
2023-05-15T12:30:11.308Z,1.70
2023-05-15T12:32:39.262Z,0.40
2023-05-15T12:35:06.739Z,1.08
2023-05-15T12:37:36.240Z,1.40
2023-05-15T12:40:10.374Z,0.40
2023-05-15T12:42:45.957Z,2.00
2023-05-15T12:45:15.103Z,1.27
2023-05-15T12:47:44.286Z,0.60
2023-05-15T12:50:20.107Z,0.63
2023-05-15T12:52:50.866Z,1.02
2023-05-15T12:55:22.167Z,2.13
2023-05-15T12:57:49.767Z,0.40
2023-05-15T13:00:17.547Z,2.45
2023-05-15T13:02:45.969Z,0.68
2023-05-15T13:05:14.294Z,0.60
2023-05-15T13:07:43.110Z,1.10
2023-05-15T13:10:11.865Z,0.40
2023-05-15T13:12:43.518Z,0.52
2023-05-15T13:15:26.529Z,0.57
2023-05-15T13:17:59.422Z,0.95
2023-05-15T13:20:28.438Z,0.68
2023-05-15T13:22:55.710Z,0.70
2023-05-15T13:25:23.076Z,1.27
2023-05-15T13:27:51.129Z,1.55
2023-05-15T13:30:19.109Z,0.63
2023-05-15T13:32:46.637Z,1.65
2023-05-15T13:35:13.840Z,0.52
2023-05-15T13:37:41.065Z,1.38
2023-05-15T13:40:10.883Z,0.47
2023-05-15T13:42:39.341Z,0.80
2023-05-15T13:45:08.168Z,5.18
2023-05-15T13:47:35.675Z,0.40
2023-05-15T13:50:03.539Z,2.92
2023-05-15T13:52:31.411Z,23.00
2023-05-15T13:54:58.343Z,2.30
2023-05-15T13:57:25.641Z,2.42
2023-05-15T13:59:52.908Z,0.75
2023-05-15T14:02:21.202Z,2.22
2023-05-15T14:04:48.357Z,0.93
2023-05-15T14:07:15.469Z,0.95
2023-05-15T14:09:42.625Z,22.42
2023-05-15T14:12:09.974Z,4.40
2023-05-15T14:14:37.947Z,10.45
2023-05-15T14:17:05.400Z,1.13
2023-05-15T14:19:32.581Z,1.13
2023-05-15T14:21:59.638Z,2.38
2023-05-15T14:24:26.861Z,0.65
2023-05-15T14:26:54.000Z,0.70
2023-05-15T14:29:21.076Z,2.08
2023-05-15T14:31:48.253Z,2.63
2023-05-15T14:34:15.800Z,0.40
2023-05-15T14:36:42.884Z,1.65
2023-05-15T14:39:10.065Z,1.73
2023-05-15T14:41:37.173Z,1.60
2023-05-15T14:44:04.421Z,0.50
2023-05-15T14:46:31.687Z,3.42
2023-05-15T14:48:58.838Z,6.10
2023-05-15T14:51:25.943Z,6.70
2023-05-15T14:53:53.241Z,2.55
2023-05-15T14:56:20.845Z,1.58
2023-05-15T14:58:49.310Z,3.13
2023-05-15T15:01:16.618Z,0.80
2023-05-15T15:03:43.996Z,2.30
2023-05-15T15:06:11.235Z,0.85
2023-05-15T15:08:38.261Z,0.75
2023-05-15T15:11:06.439Z,0.32
2023-05-15T15:13:33.635Z,5.15
2023-05-15T15:16:00.805Z,1.38
2023-05-15T15:18:28.246Z,1.63
2023-05-15T15:20:55.352Z,0.73
2023-05-15T15:23:23.252Z,0.63
2023-05-15T15:25:50.528Z,6.38
2023-05-15T15:28:17.720Z,0.82
2023-05-15T15:30:44.908Z,0.30
2023-05-15T15:33:12.039Z,1.30
2023-05-15T15:35:39.542Z,2.22
2023-05-15T15:38:06.665Z,0.82
2023-05-15T15:40:35.622Z,0.60
2023-05-15T15:43:03.117Z,1.58
2023-05-15T15:45:30.699Z,0.50
2023-05-15T15:47:57.939Z,0.50
2023-05-15T15:50:25.732Z,1.23
2023-05-15T15:52:53.039Z,0.57
2023-05-15T15:55:20.540Z,1.30
2023-05-15T15:57:47.857Z,2.15
2023-05-15T16:00:15.416Z,0.40
2023-05-15T16:02:42.765Z,4.13
2023-05-15T16:05:10.246Z,0.60
2023-05-15T16:07:37.461Z,1.60
2023-05-15T16:10:12.632Z,2.08
2023-05-15T16:12:41.153Z,2.88
2023-05-15T16:15:21.740Z,0.93
2023-05-15T16:17:53.825Z,1.02
2023-05-15T16:20:22.229Z,0.70
2023-05-15T16:22:49.959Z,2.92
2023-05-15T16:25:17.518Z,0.93
2023-05-15T16:27:44.738Z,0.60
2023-05-15T16:30:12.642Z,1.98
2023-05-15T16:32:40.287Z,3.08
2023-05-15T16:35:08.041Z,0.85
2023-05-15T16:37:35.747Z,0.68
2023-05-15T16:40:04.036Z,0.90
2023-05-15T16:42:36.499Z,1.50
2023-05-15T16:45:05.075Z,0.65
2023-05-15T16:47:32.184Z,0.60
2023-05-15T16:49:59.412Z,1.20
2023-05-15T16:52:26.940Z,0.98
2023-05-15T16:54:54.142Z,0.70
2023-05-15T16:57:21.545Z,1.70
2023-05-15T16:59:48.729Z,1.15
2023-05-15T17:02:16.257Z,0.40
2023-05-15T17:04:43.400Z,1.02
2023-05-15T17:07:10.690Z,5.40
2023-05-15T17:09:40.274Z,0.82
2023-05-15T17:12:08.141Z,0.65
2023-05-15T17:14:35.342Z,3.42
2023-05-15T17:17:02.600Z,6.30
2023-05-15T17:19:30.296Z,1.95
2023-05-15T17:21:57.674Z,0.57
2023-05-15T17:24:25.059Z,1.75
2023-05-15T17:26:52.176Z,1.58
2023-05-15T17:29:19.436Z,0.60
2023-05-15T17:31:47.122Z,2.75
2023-05-15T17:34:14.579Z,2.85
2023-05-15T17:36:43.702Z,2.55
2023-05-15T17:39:11.254Z,2.03
2023-05-15T17:41:38.756Z,1.80
2023-05-15T17:44:06.087Z,0.55
2023-05-15T17:46:33.606Z,1.95
2023-05-15T17:49:01.295Z,0.70
2023-05-15T17:51:28.444Z,1.77
2023-05-15T17:53:56.020Z,1.35
2023-05-15T17:56:23.216Z,2.55
2023-05-15T17:58:51.072Z,3.97
2023-05-15T18:01:18.312Z,1.75
2023-05-15T18:03:46.136Z,1.02
2023-05-15T18:06:14.059Z,0.57
2023-05-15T18:08:41.525Z,1.35
2023-05-15T18:11:21.087Z,0.40
2023-05-15T18:13:49.582Z,3.83
2023-05-15T18:16:18.049Z,1.65
2023-05-15T18:18:46.198Z,2.63
2023-05-15T18:21:13.649Z,2.83
2023-05-15T18:23:41.364Z,6.75
2023-05-15T18:26:08.509Z,11.10
2023-05-15T18:28:35.995Z,9.27
2023-05-15T18:31:03.297Z,5.32
2023-05-15T18:33:31.152Z,4.28
2023-05-15T18:35:58.845Z,3.30
2023-05-15T18:38:26.270Z,6.97
2023-05-15T18:40:53.894Z,3.67
2023-05-15T18:43:21.744Z,3.60
2023-05-15T18:45:49.224Z,4.53
2023-05-15T18:48:16.485Z,5.53
2023-05-15T18:50:43.729Z,10.80
2023-05-15T18:53:10.929Z,8.60
2023-05-15T18:55:39.502Z,8.02
2023-05-15T18:58:06.698Z,11.15
2023-05-15T19:00:38.503Z,11.82
2023-05-15T19:03:09.055Z,5.38
2023-05-15T19:05:36.401Z,8.75
2023-05-15T19:08:04.595Z,6.07
2023-05-15T19:10:31.816Z,4.70
2023-05-15T19:12:59.364Z,5.68
2023-05-15T19:15:27.267Z,5.95
2023-05-15T19:17:54.426Z,3.00
2023-05-15T19:20:21.918Z,2.55
2023-05-15T19:22:49.119Z,3.58
2023-05-15T19:25:16.567Z,7.25
2023-05-15T19:27:43.846Z,2.47
2023-05-15T19:30:11.698Z,4.70
2023-05-15T19:32:39.661Z,2.95
2023-05-15T19:35:07.362Z,4.13
2023-05-15T19:37:34.694Z,3.78
2023-05-15T19:40:02.315Z,4.50
2023-05-15T19:42:29.619Z,1.92
2023-05-15T19:44:57.408Z,4.68
2023-05-15T19:47:24.544Z,3.35
2023-05-15T19:49:51.876Z,3.58
2023-05-15T19:52:20.204Z,4.18
2023-05-15T19:54:47.705Z,2.60
2023-05-15T19:57:15.703Z,1.35
2023-05-15T19:59:43.097Z,1.85
2023-05-15T20:02:11.355Z,4.13
2023-05-15T20:04:39.428Z,1.67
2023-05-15T20:07:07.020Z,3.75
2023-05-15T20:09:34.333Z,4.80
2023-05-15T20:12:02.868Z,4.45
2023-05-15T20:14:32.447Z,2.35
2023-05-15T20:16:59.932Z,2.15
2023-05-15T20:19:31.502Z,5.47
2023-05-15T20:21:58.941Z,2.50
2023-05-15T20:24:26.463Z,2.03
2023-05-15T20:26:53.803Z,1.42
2023-05-15T20:29:21.154Z,2.58
2023-05-15T20:31:48.688Z,1.80
2023-05-15T20:34:16.589Z,1.48
2023-05-15T20:36:44.317Z,3.28
2023-05-15T20:39:12.597Z,3.45
2023-05-15T20:41:40.095Z,3.08
2023-05-15T20:44:07.279Z,1.27
2023-05-15T20:46:34.568Z,1.85
2023-05-15T20:49:01.709Z,3.10
2023-05-15T20:51:28.917Z,4.78
2023-05-15T20:53:56.557Z,1.88
2023-05-15T20:56:26.270Z,2.08
2023-05-15T20:58:55.101Z,2.00
2023-05-15T21:01:23.108Z,2.63
2023-05-15T21:03:50.718Z,1.70
2023-05-15T21:06:17.730Z,1.85
2023-05-15T21:08:44.851Z,1.80
2023-05-15T21:11:11.941Z,1.45
2023-05-15T21:13:39.204Z,3.22
2023-05-15T21:16:06.739Z,2.58
2023-05-15T21:18:33.983Z,3.60
2023-05-15T21:21:03.134Z,3.70
2023-05-15T21:23:30.207Z,8.60
2023-05-15T21:25:57.336Z,4.90
2023-05-15T21:28:24.824Z,2.88
2023-05-15T21:30:51.984Z,3.63
2023-05-15T21:33:19.143Z,5.28
2023-05-15T21:35:47.609Z,2.33
2023-05-15T21:38:15.741Z,2.67
2023-05-15T21:40:42.759Z,2.45
2023-05-15T21:43:09.989Z,3.53
2023-05-15T21:45:37.084Z,2.03
2023-05-15T21:48:04.295Z,2.65
2023-05-15T21:50:31.528Z,5.30
2023-05-15T21:52:58.739Z,3.10
2023-05-15T21:55:26.026Z,4.82
2023-05-15T21:57:53.240Z,2.22
2023-05-15T22:00:20.932Z,4.82
2023-05-15T22:02:48.165Z,2.42
2023-05-15T22:05:16.193Z,3.78
2023-05-15T22:07:44.298Z,2.53
2023-05-15T22:10:16.653Z,4.82
2023-05-15T22:12:44.468Z,4.53
2023-05-15T22:15:14.706Z,3.30
2023-05-15T22:17:42.460Z,2.25
2023-05-15T22:20:11.674Z,5.03
2023-05-15T22:22:40.079Z,4.45
2023-05-15T22:25:08.775Z,3.28
2023-05-15T22:27:36.301Z,4.50
2023-05-15T22:30:04.934Z,3.38
2023-05-15T22:32:32.664Z,3.75
2023-05-15T22:35:00.140Z,6.65
2023-05-15T22:37:27.307Z,3.53
2023-05-15T22:39:54.765Z,2.83
2023-05-15T22:42:22.181Z,4.20
2023-05-15T22:44:49.597Z,3.15
2023-05-15T22:47:16.860Z,3.80
2023-05-15T22:49:44.176Z,3.05
2023-05-15T22:52:13.618Z,3.40
2023-05-15T22:54:41.612Z,3.33
2023-05-15T22:57:09.104Z,2.17
2023-05-15T22:59:36.558Z,2.53
2023-05-15T23:02:04.165Z,2.55
2023-05-15T23:04:31.443Z,3.17
2023-05-15T23:06:58.535Z,2.35
2023-05-15T23:09:25.748Z,3.30
2023-05-15T23:11:53.087Z,4.97
2023-05-15T23:14:20.385Z,2.80
2023-05-15T23:16:47.728Z,1.85
2023-05-15T23:19:14.994Z,1.60
2023-05-15T23:21:42.111Z,3.63
2023-05-15T23:24:09.181Z,2.78
2023-05-15T23:26:36.321Z,2.78
2023-05-15T23:29:03.597Z,4.15
2023-05-15T23:31:30.788Z,2.42
2023-05-15T23:34:01.825Z,3.05
2023-05-15T23:36:36.329Z,3.28
2023-05-15T23:39:14.088Z,2.30
2023-05-15T23:41:50.162Z,1.70
2023-05-15T23:44:34.040Z,2.03
2023-05-15T23:47:28.362Z,2.75
2023-05-15T23:50:07.977Z,2.88
2023-05-15T23:52:44.036Z,1.98
2023-05-15T23:55:27.119Z,2.47
2023-05-15T23:58:02.466Z,2.58
